createdAt,value
2019-04-29T00:01:43.029Z,4.12
2019-04-29T00:04:14.809Z,6.67
2019-04-29T00:06:46.558Z,6.75
2019-04-29T00:09:19.033Z,8.25
2019-04-29T00:11:50.637Z,5.42
2019-04-29T00:14:22.650Z,5.20
2019-04-29T00:17:02.096Z,5.42
2019-04-29T00:19:41.307Z,7.42
2019-04-29T00:22:12.863Z,4.62
2019-04-29T00:24:45.087Z,5.25
2019-04-29T00:27:16.486Z,6.20
2019-04-29T00:29:48.257Z,8.00
2019-04-29T00:32:20.123Z,6.95
2019-04-29T00:34:51.978Z,5.33
2019-04-29T00:37:31.106Z,4.80
2019-04-29T00:40:23.091Z,6.60
2019-04-29T00:42:59.610Z,4.58
2019-04-29T00:45:31.573Z,7.03
2019-04-29T00:48:03.202Z,5.87
2019-04-29T00:50:35.018Z,6.72
2019-04-29T00:53:06.536Z,5.05
2019-04-29T00:55:38.085Z,9.88
2019-04-29T00:58:09.746Z,7.87
2019-04-29T01:00:42.955Z,9.60
2019-04-29T01:03:14.889Z,5.55
2019-04-29T01:05:46.538Z,7.90
2019-04-29T01:08:18.346Z,6.60
2019-04-29T01:10:50.599Z,8.55
2019-04-29T01:13:22.623Z,7.42
2019-04-29T01:15:54.379Z,11.25
2019-04-29T01:18:25.930Z,5.92
2019-04-29T01:20:57.729Z,11.50
2019-04-29T01:23:29.482Z,5.35
2019-04-29T01:26:02.759Z,5.78
2019-04-29T01:28:35.743Z,7.40
2019-04-29T01:31:09.155Z,4.50
2019-04-29T01:33:40.794Z,5.97
2019-04-29T01:36:16.981Z,5.47
2019-04-29T01:38:49.718Z,5.80
2019-04-29T01:41:25.511Z,12.68
2019-04-29T01:44:04.257Z,7.95
2019-04-29T01:46:35.870Z,8.78
2019-04-29T01:49:07.617Z,6.00
2019-04-29T01:51:39.603Z,6.62
2019-04-29T01:54:11.465Z,6.45
2019-04-29T01:56:43.705Z,10.40
2019-04-29T01:59:15.451Z,10.78
2019-04-29T02:01:47.330Z,7.70
2019-04-29T02:04:19.106Z,8.50
2019-04-29T02:06:50.848Z,8.33
2019-04-29T02:09:33.469Z,6.55
2019-04-29T02:12:05.457Z,6.65
2019-04-29T02:14:37.477Z,5.03
2019-04-29T02:17:09.357Z,7.35
2019-04-29T02:19:40.976Z,8.75
2019-04-29T02:22:17.447Z,7.83
2019-04-29T02:24:50.744Z,6.25
2019-04-29T02:27:22.267Z,7.50
2019-04-29T02:29:54.206Z,11.22
2019-04-29T02:32:26.133Z,8.68
2019-04-29T02:34:58.015Z,12.30
2019-04-29T02:37:31.063Z,7.00
2019-04-29T02:40:07.124Z,4.78
2019-04-29T02:42:40.773Z,9.13
2019-04-29T02:45:16.854Z,10.13
2019-04-29T02:47:48.718Z,13.50
2019-04-29T02:50:21.628Z,11.65
2019-04-29T02:52:53.229Z,7.37
2019-04-29T02:55:27.430Z,15.68
2019-04-29T02:58:03.690Z,13.78
2019-04-29T03:00:37.223Z,14.23
2019-04-29T03:03:10.368Z,7.58
2019-04-29T03:05:43.437Z,5.53
2019-04-29T03:08:14.989Z,11.93
2019-04-29T03:10:46.770Z,12.23
2019-04-29T03:13:18.768Z,14.13
2019-04-29T03:15:50.900Z,10.25
2019-04-29T03:18:24.305Z,21.52
2019-04-29T03:20:57.366Z,9.60
2019-04-29T03:23:29.449Z,16.45
2019-04-29T03:26:00.975Z,17.65
2019-04-29T03:28:32.907Z,10.70
2019-04-29T03:31:04.736Z,11.08
2019-04-29T03:33:36.589Z,10.18
2019-04-29T03:36:08.422Z,6.03
2019-04-29T03:38:39.899Z,15.53
2019-04-29T03:41:11.530Z,13.38
2019-04-29T03:43:43.588Z,13.48
2019-04-29T03:46:15.275Z,10.43
2019-04-29T03:48:47.146Z,9.10
2019-04-29T03:51:18.971Z,12.40
2019-04-29T03:53:50.415Z,12.55
2019-04-29T03:56:22.174Z,12.03
2019-04-29T03:58:53.703Z,16.55
2019-04-29T04:01:27.134Z,25.80
2019-04-29T04:04:03.320Z,16.37
2019-04-29T04:06:36.915Z,12.98
2019-04-29T04:09:16.290Z,21.73
2019-04-29T04:11:48.026Z,20.43
2019-04-29T04:14:19.667Z,20.65
2019-04-29T04:17:11.585Z,24.43
2019-04-29T04:19:43.340Z,52.05
2019-04-29T04:22:15.437Z,27.22
2019-04-29T04:24:47.448Z,22.42
2019-04-29T04:27:19.128Z,22.73
2019-04-29T04:29:51.935Z,29.75
2019-04-29T04:32:23.763Z,30.20
2019-04-29T04:34:55.830Z,22.85
2019-04-29T04:37:27.932Z,27.98
2019-04-29T04:40:00.073Z,27.58
2019-04-29T04:42:32.156Z,22.75
2019-04-29T04:45:04.179Z,47.88
2019-04-29T04:47:36.148Z,23.00
2019-04-29T04:50:09.118Z,18.87
2019-04-29T04:52:41.312Z,36.05
2019-04-29T04:55:13.470Z,35.43
2019-04-29T04:57:45.515Z,18.37
2019-04-29T05:00:25.502Z,22.48
2019-04-29T05:02:57.133Z,26.12
2019-04-29T05:05:28.994Z,21.45
2019-04-29T05:08:01.143Z,14.38
2019-04-29T05:10:33.236Z,18.98
2019-04-29T05:13:05.068Z,24.23
2019-04-29T05:15:36.795Z,19.07
2019-04-29T05:18:08.410Z,18.07
2019-04-29T05:20:40.376Z,20.80
2019-04-29T05:23:12.117Z,14.28
2019-04-29T05:25:43.891Z,13.32
2019-04-29T05:28:15.431Z,18.48
2019-04-29T05:30:47.062Z,13.75
2019-04-29T05:33:20.048Z,11.85
2019-04-29T05:36:01.477Z,18.90
2019-04-29T05:38:40.478Z,17.07
2019-04-29T05:41:12.139Z,16.27
2019-04-29T05:44:04.165Z,18.45
2019-04-29T05:46:40.612Z,20.00
2019-04-29T05:49:14.134Z,19.75
2019-04-29T05:51:47.199Z,22.73
2019-04-29T05:54:20.403Z,24.27
2019-04-29T05:56:52.051Z,26.62
2019-04-29T05:59:24.133Z,29.92
2019-04-29T06:01:55.672Z,27.60
2019-04-29T06:04:28.743Z,16.15
2019-04-29T06:07:00.509Z,18.20
2019-04-29T06:09:32.411Z,18.77
2019-04-29T06:12:05.254Z,17.75
2019-04-29T06:14:36.968Z,22.50
2019-04-29T06:17:08.770Z,23.00
2019-04-29T06:19:41.091Z,28.32
2019-04-29T06:22:12.730Z,33.00
2019-04-29T06:24:44.666Z,23.12
2019-04-29T06:27:16.416Z,30.80
2019-04-29T06:29:48.191Z,21.68
2019-04-29T06:32:20.195Z,31.00
2019-04-29T06:34:53.398Z,20.08
2019-04-29T06:37:25.206Z,30.77
2019-04-29T06:39:56.866Z,25.50
2019-04-29T06:42:28.513Z,15.80
2019-04-29T06:45:00.154Z,18.27
2019-04-29T06:47:32.068Z,18.60
2019-04-29T06:50:08.205Z,21.20
2019-04-29T06:52:39.622Z,24.72
2019-04-29T06:55:11.582Z,18.05
2019-04-29T06:57:43.136Z,22.07
2019-04-29T07:00:17.564Z,18.92
2019-04-29T07:02:51.023Z,21.77
2019-04-29T07:05:22.937Z,27.30
2019-04-29T07:07:54.585Z,15.43
2019-04-29T07:10:27.130Z,23.60
2019-04-29T07:12:59.108Z,20.60
2019-04-29T07:15:31.105Z,19.23
2019-04-29T07:18:02.854Z,28.00
2019-04-29T07:20:37.052Z,28.15
2019-04-29T07:23:08.004Z,33.60
2019-04-29T07:25:39.637Z,41.63
2019-04-29T07:28:13.681Z,23.65
2019-04-29T07:31:00.477Z,16.37
2019-04-29T07:33:22.678Z,20.85
2019-04-29T07:35:51.187Z,23.65
2019-04-29T07:38:22.518Z,37.28
2019-04-29T07:40:54.552Z,25.15
2019-04-29T07:43:26.563Z,30.32
2019-04-29T07:46:03.801Z,29.95
2019-04-29T07:48:36.851Z,27.15
2019-04-29T07:51:06.640Z,32.20
2019-04-29T07:53:45.183Z,26.17
2019-04-29T07:56:11.811Z,77.15
2019-04-29T07:58:43.547Z,30.72
2019-04-29T08:01:19.910Z,30.97
2019-04-29T08:03:49.522Z,30.02
2019-04-29T08:06:22.048Z,23.00
2019-04-29T08:08:55.503Z,25.08
2019-04-29T08:11:27.142Z,30.70
2019-04-29T08:14:01.564Z,29.87
2019-04-29T08:16:33.238Z,25.10
2019-04-29T08:19:05.835Z,33.38
2019-04-29T08:21:37.769Z,29.52
2019-04-29T08:24:11.557Z,24.87
2019-04-29T08:26:47.467Z,22.48
2019-04-29T08:29:16.618Z,17.27
2019-04-29T08:31:51.808Z,26.82
2019-04-29T08:34:23.071Z,35.63
2019-04-29T08:36:55.306Z,33.13
2019-04-29T08:39:29.434Z,37.58
2019-04-29T08:42:03.876Z,33.98
2019-04-29T08:44:37.198Z,26.15
2019-04-29T08:47:17.258Z,20.88
2019-04-29T08:49:49.028Z,27.75
2019-04-29T08:52:20.877Z,22.87
2019-04-29T08:54:55.299Z,35.20
2019-04-29T08:57:26.160Z,23.80
2019-04-29T08:59:57.795Z,26.60
2019-04-29T09:02:35.145Z,22.40
2019-04-29T09:05:11.474Z,19.00
2019-04-29T09:07:40.982Z,21.60
2019-04-29T09:10:13.411Z,15.38
2019-04-29T09:12:45.379Z,19.42
2019-04-29T09:15:17.914Z,16.00
2019-04-29T09:17:49.519Z,17.87
2019-04-29T09:20:21.248Z,19.20
2019-04-29T09:23:00.551Z,16.65
2019-04-29T09:25:34.098Z,14.85
2019-04-29T09:28:18.240Z,21.35
2019-04-29T09:30:49.298Z,14.30
2019-04-29T09:33:21.355Z,19.87
2019-04-29T09:35:53.090Z,14.13
2019-04-29T09:38:24.824Z,14.60
2019-04-29T09:41:13.297Z,14.75
2019-04-29T09:43:49.580Z,25.32
2019-04-29T09:46:23.266Z,16.00
2019-04-29T09:48:54.836Z,14.78
2019-04-29T09:51:27.666Z,16.05
2019-04-29T09:53:59.692Z,16.57
2019-04-29T09:56:34.522Z,10.55
2019-04-29T09:59:22.944Z,13.10
2019-04-29T10:01:58.905Z,11.18
2019-04-29T10:04:38.236Z,14.23
2019-04-29T10:07:11.833Z,13.58
2019-04-29T10:09:56.506Z,14.50
2019-04-29T10:12:18.061Z,19.25
2019-04-29T10:14:50.088Z,15.68
2019-04-29T10:17:26.355Z,14.03
2019-04-29T10:20:08.501Z,10.58
2019-04-29T10:22:40.091Z,16.12
2019-04-29T10:25:12.339Z,9.93
2019-04-29T10:27:44.033Z,11.05
2019-04-29T10:30:18.151Z,10.38
2019-04-29T10:32:50.312Z,13.30
2019-04-29T10:35:22.161Z,12.03
2019-04-29T10:37:54.014Z,15.90
2019-04-29T10:40:27.768Z,11.53
2019-04-29T10:43:17.359Z,16.10
2019-04-29T10:45:59.809Z,27.30
2019-04-29T10:48:33.301Z,22.48
2019-04-29T10:51:06.087Z,31.60
2019-04-29T10:53:37.938Z,22.75
2019-04-29T10:56:09.625Z,20.55
2019-04-29T10:58:41.563Z,27.60
2019-04-29T11:01:30.370Z,29.45
2019-04-29T11:04:02.834Z,31.68
2019-04-29T11:06:35.713Z,34.78
2019-04-29T11:09:16.113Z,27.07
2019-04-29T11:11:49.433Z,33.23
2019-04-29T11:14:21.056Z,29.05
2019-04-29T11:16:53.373Z,26.17
2019-04-29T11:19:25.425Z,27.45
2019-04-29T11:22:02.181Z,30.45
2019-04-29T11:24:35.738Z,29.02
2019-04-29T11:27:12.719Z,26.27
2019-04-29T11:29:44.348Z,33.60
2019-04-29T11:32:33.222Z,31.02
2019-04-29T11:35:17.131Z,27.77
2019-04-29T11:37:49.949Z,27.25
2019-04-29T11:40:26.115Z,27.95
2019-04-29T11:42:56.702Z,25.32
2019-04-29T11:45:28.581Z,21.35
2019-04-29T11:48:00.648Z,23.25
2019-04-29T11:50:34.022Z,21.75
2019-04-29T11:53:06.543Z,27.98
2019-04-29T11:55:38.359Z,77.75
2019-04-29T11:58:12.130Z,24.18
2019-04-29T12:01:04.027Z,22.93
2019-04-29T12:03:43.384Z,24.20
2019-04-29T12:06:20.262Z,21.50
2019-04-29T12:08:53.396Z,20.85
2019-04-29T12:11:23.733Z,23.35
2019-04-29T12:13:59.027Z,18.55
2019-04-29T12:16:41.998Z,19.75
2019-04-29T12:19:22.613Z,17.73
2019-04-29T12:21:56.040Z,20.27
2019-04-29T12:24:27.701Z,15.68
2019-04-29T12:26:59.402Z,18.42
2019-04-29T12:29:31.433Z,27.07
2019-04-29T12:32:07.721Z,16.70
2019-04-29T12:34:44.151Z,38.35
2019-04-29T12:37:34.544Z,20.82
2019-04-29T12:40:17.618Z,26.65
2019-04-29T12:43:00.210Z,25.80
2019-04-29T12:45:39.938Z,31.10
2019-04-29T12:48:24.021Z,23.05
2019-04-29T12:50:44.991Z,27.45
2019-04-29T12:53:17.136Z,32.60
2019-04-29T12:55:53.535Z,44.55
2019-04-29T12:58:25.878Z,43.85
2019-04-29T13:01:01.101Z,33.55
2019-04-29T13:03:40.097Z,36.93
2019-04-29T13:06:12.983Z,33.98
2019-04-29T13:08:46.238Z,30.62
2019-04-29T13:11:19.185Z,35.05
2019-04-29T13:13:56.568Z,36.23
2019-04-29T13:16:43.354Z,35.15
2019-04-29T13:19:20.288Z,36.35
2019-04-29T13:21:50.214Z,31.60
2019-04-29T13:24:24.431Z,34.98
2019-04-29T13:26:56.061Z,33.70
2019-04-29T13:29:31.876Z,31.62
2019-04-29T13:32:01.868Z,37.88
2019-04-29T13:34:35.561Z,34.83
2019-04-29T13:37:18.119Z,34.58
2019-04-29T13:39:40.905Z,29.32
2019-04-29T13:42:15.849Z,35.70
2019-04-29T13:45:06.148Z,27.87
2019-04-29T13:47:29.083Z,37.73
2019-04-29T13:50:20.221Z,23.32
2019-04-29T13:52:37.710Z,26.97
2019-04-29T13:55:17.840Z,28.02
2019-04-29T13:57:45.113Z,24.45
2019-04-29T14:00:24.579Z,30.92
2019-04-29T14:02:59.336Z,23.60
2019-04-29T14:05:32.529Z,26.68
2019-04-29T14:08:04.908Z,27.85
2019-04-29T14:10:36.914Z,32.25
2019-04-29T14:13:15.206Z,21.80
2019-04-29T14:15:42.875Z,26.25
2019-04-29T14:18:15.362Z,26.68
2019-04-29T14:20:51.762Z,20.95
2019-04-29T14:23:21.955Z,25.08
2019-04-29T14:25:54.647Z,25.15
2019-04-29T14:28:26.603Z,22.30
2019-04-29T14:30:58.551Z,19.15
2019-04-29T14:33:32.309Z,27.40
2019-04-29T14:36:06.146Z,20.72
2019-04-29T14:38:40.762Z,17.12
2019-04-29T14:41:14.043Z,17.40
2019-04-29T14:43:46.335Z,12.30
2019-04-29T14:46:35.809Z,15.75
2019-04-29T14:49:11.851Z,19.30
2019-04-29T14:51:43.219Z,12.78
2019-04-29T14:54:14.992Z,21.30
2019-04-29T14:56:46.845Z,12.07
2019-04-29T14:59:18.762Z,14.10
2019-04-29T15:01:58.402Z,19.40
2019-04-29T15:04:31.978Z,13.08
2019-04-29T15:07:03.601Z,16.60
2019-04-29T15:09:46.398Z,16.90
2019-04-29T15:12:12.138Z,15.65
2019-04-29T15:14:59.116Z,12.47
2019-04-29T15:17:36.260Z,13.40
2019-04-29T15:20:11.374Z,13.75
2019-04-29T15:22:43.076Z,12.25
2019-04-29T15:25:16.815Z,16.27
2019-04-29T15:27:48.496Z,21.65
2019-04-29T15:30:20.431Z,21.57
2019-04-29T15:32:53.178Z,21.45
2019-04-29T15:35:25.694Z,23.50
2019-04-29T15:37:58.013Z,19.85
2019-04-29T15:40:30.006Z,21.85
2019-04-29T15:43:02.169Z,27.93
2019-04-29T15:45:34.480Z,20.70
2019-04-29T15:48:06.427Z,25.80
2019-04-29T15:50:39.127Z,31.00
2019-04-29T15:53:10.827Z,33.15
2019-04-29T15:55:43.233Z,30.48
2019-04-29T15:58:15.360Z,33.05
2019-04-29T16:00:47.529Z,32.93
2019-04-29T16:03:20.816Z,27.02
2019-04-29T16:06:19.660Z,28.98
2019-04-29T16:08:49.392Z,53.38
2019-04-29T16:11:41.413Z,74.65
2019-04-29T16:14:15.081Z,50.52
2019-04-29T16:16:47.080Z,64.72
2019-04-29T16:19:19.123Z,28.98
2019-04-29T16:21:51.111Z,23.67
2019-04-29T16:24:27.313Z,30.50
2019-04-29T16:27:01.206Z,25.50
2019-04-29T16:29:31.011Z,24.10
2019-04-29T16:32:05.020Z,27.20
2019-04-29T16:34:44.639Z,28.12
2019-04-29T16:37:18.556Z,28.80
2019-04-29T16:39:45.266Z,29.65
2019-04-29T16:42:21.833Z,28.55
2019-04-29T16:44:53.951Z,25.68
2019-04-29T16:47:26.013Z,33.48
2019-04-29T16:50:04.687Z,33.80
2019-04-29T16:52:31.647Z,34.15
2019-04-29T16:55:05.827Z,36.68
2019-04-29T16:57:38.234Z,41.15
2019-04-29T17:00:15.801Z,31.85
2019-04-29T17:02:47.078Z,32.80
2019-04-29T17:05:19.457Z,34.95
2019-04-29T17:07:52.988Z,32.17
2019-04-29T17:10:29.495Z,39.95
2019-04-29T17:13:01.566Z,39.73
2019-04-29T17:15:33.951Z,43.33
2019-04-29T17:18:06.580Z,36.70
2019-04-29T17:20:38.269Z,43.45
2019-04-29T17:23:10.159Z,44.63
2019-04-29T17:25:42.297Z,43.42
2019-04-29T17:28:24.448Z,45.50
2019-04-29T17:31:12.302Z,52.43
2019-04-29T17:36:23.195Z,47.53
2019-04-29T17:38:51.628Z,45.55
2019-04-29T17:41:23.763Z,48.52
2019-04-29T17:44:14.558Z,48.48
2019-04-29T17:46:47.655Z,55.65
2019-04-29T17:49:22.126Z,61.90
2019-04-29T17:51:59.553Z,64.35
2019-04-29T17:54:45.220Z,69.05
2019-04-29T17:57:28.158Z,75.17
2019-04-29T18:00:05.085Z,65.90
2019-04-29T18:02:57.402Z,63.87
2019-04-29T18:05:34.512Z,70.45
2019-04-29T18:08:11.392Z,70.08
2019-04-29T18:10:45.786Z,68.95
2019-04-29T18:13:23.755Z,78.72
2019-04-29T18:16:01.684Z,75.47
2019-04-29T18:18:28.798Z,57.73
2019-04-29T18:21:15.664Z,63.87
2019-04-29T18:23:59.557Z,65.72
2019-04-29T18:26:33.755Z,70.92
2019-04-29T18:29:08.056Z,69.27
2019-04-29T18:31:40.211Z,74.07
2019-04-29T18:34:15.185Z,71.82
2019-04-29T18:36:49.427Z,77.00
2019-04-29T18:39:31.465Z,75.08
2019-04-29T18:44:42.051Z,68.47
2019-04-29T18:47:21.994Z,67.30
2019-04-29T18:49:51.137Z,64.90
2019-04-29T18:52:27.878Z,68.92
2019-04-29T18:55:05.870Z,70.40
2019-04-29T18:57:45.881Z,64.65
2019-04-29T19:00:21.929Z,74.37
2019-04-29T19:03:01.112Z,59.95
2019-04-29T19:05:41.742Z,64.20
2019-04-29T19:08:23.069Z,62.40
2019-04-29T19:10:52.144Z,59.03
2019-04-29T19:13:30.832Z,59.00
2019-04-29T19:16:10.298Z,58.10
2019-04-29T19:18:47.498Z,54.48
2019-04-29T19:21:23.509Z,56.50
2019-04-29T19:23:57.408Z,62.58
2019-04-29T19:26:36.224Z,60.95
2019-04-29T19:29:20.964Z,55.15
2019-04-29T19:32:09.315Z,134.60
2019-04-29T19:34:50.067Z,60.83
2019-04-29T19:37:32.496Z,62.48
2019-04-29T19:40:04.916Z,55.20
2019-04-29T19:42:40.993Z,66.33
2019-04-29T19:45:20.392Z,64.22
2019-04-29T19:47:56.217Z,60.15
2019-04-29T19:50:35.855Z,62.23
2019-04-29T19:53:12.156Z,60.92
2019-04-29T19:55:47.508Z,59.18
2019-04-29T19:58:28.483Z,59.60
2019-04-29T20:01:00.184Z,58.80
2019-04-29T20:03:37.921Z,68.12
2019-04-29T20:06:24.702Z,60.28
2019-04-29T20:08:54.869Z,58.50
2019-04-29T20:11:32.852Z,59.25
2019-04-29T20:14:06.476Z,54.20
2019-04-29T20:16:54.776Z,54.88
2019-04-29T20:19:27.436Z,55.10
2019-04-29T20:22:05.581Z,57.10
2019-04-29T20:24:37.661Z,65.08
2019-04-29T20:27:11.636Z,61.35
2019-04-29T20:29:48.353Z,62.43
2019-04-29T20:32:31.865Z,64.27
2019-04-29T20:35:10.117Z,68.28
2019-04-29T20:37:43.663Z,68.20
2019-04-29T20:40:16.220Z,66.02
2019-04-29T20:42:49.361Z,61.50
2019-04-29T20:45:25.428Z,66.97
2019-04-29T20:47:56.077Z,63.65
2019-04-29T20:50:28.262Z,59.55
2019-04-29T20:53:11.356Z,69.12
2019-04-29T20:55:43.187Z,72.78
2019-04-29T20:58:15.684Z,79.20
2019-04-29T21:00:47.935Z,78.10
2019-04-29T21:03:27.825Z,81.37
2019-04-29T21:05:54.981Z,94.30
2019-04-29T21:08:26.802Z,83.20
2019-04-29T21:11:00.571Z,86.45
2019-04-29T21:13:37.052Z,87.78
2019-04-29T21:16:10.548Z,84.72
2019-04-29T21:18:45.472Z,84.03
2019-04-29T21:21:15.913Z,82.20
2019-04-29T21:23:48.314Z,82.92
2019-04-29T21:26:20.037Z,78.92
2019-04-29T21:28:52.947Z,85.42
2019-04-29T21:31:25.566Z,79.53
2019-04-29T21:33:58.859Z,72.55
2019-04-29T21:36:38.333Z,74.17
2019-04-29T21:39:22.099Z,71.65
2019-04-29T21:41:58.742Z,77.32
2019-04-29T21:44:29.691Z,72.65
2019-04-29T21:47:04.691Z,67.20
2019-04-29T21:49:44.957Z,74.85
2019-04-29T21:52:09.662Z,70.55
2019-04-29T21:54:44.630Z,71.72
2019-04-29T21:57:17.020Z,73.60
2019-04-29T21:59:49.355Z,72.97
2019-04-29T22:02:21.523Z,73.87
2019-04-29T22:04:55.213Z,72.47
2019-04-29T22:07:27.199Z,69.87
2019-04-29T22:09:59.309Z,75.12
2019-04-29T22:12:31.520Z,70.85
2019-04-29T22:15:05.891Z,66.40
2019-04-29T22:17:37.716Z,69.75
2019-04-29T22:20:11.489Z,74.67
2019-04-29T22:22:45.241Z,71.28
2019-04-29T22:25:16.800Z,78.92
2019-04-29T22:27:49.041Z,72.92
2019-04-29T22:30:22.363Z,76.33
2019-04-29T22:32:58.048Z,72.45
2019-04-29T22:35:32.798Z,70.20
2019-04-29T22:38:01.582Z,74.30
2019-04-29T22:40:40.754Z,69.00
2019-04-29T22:43:14.277Z,81.00
2019-04-29T22:45:45.314Z,82.35
2019-04-29T22:48:19.811Z,82.08
2019-04-29T22:50:51.637Z,93.17
2019-04-29T22:53:24.875Z,87.78
2019-04-29T22:55:56.749Z,91.63
2019-04-29T22:58:28.764Z,86.15
2019-04-29T23:01:02.456Z,90.70
2019-04-29T23:03:37.500Z,94.65
2019-04-29T23:06:08.489Z,95.55
2019-04-29T23:08:40.372Z,98.72
2019-04-29T23:11:12.352Z,94.70
2019-04-29T23:13:46.168Z,100.78
2019-04-29T23:16:17.851Z,106.63
2019-04-29T23:18:49.866Z,105.32
2019-04-29T23:21:44.798Z,93.60
2019-04-29T23:24:17.605Z,100.33
2019-04-29T23:26:49.526Z,107.50
2019-04-29T23:29:21.603Z,109.67
2019-04-29T23:31:55.287Z,106.47
2019-04-29T23:34:29.221Z,102.60
2019-04-29T23:37:00.801Z,104.65
2019-04-29T23:39:34.822Z,101.12
2019-04-29T23:42:12.209Z,111.52
2019-04-29T23:44:42.370Z,107.30
2019-04-29T23:47:15.809Z,93.47
2019-04-29T23:49:47.740Z,102.07
2019-04-29T23:52:19.610Z,94.70
2019-04-29T23:54:51.441Z,101.90
2019-04-29T23:57:28.534Z,103.87
